Time;durP1;ratioP1;P1;durP2;ratioP2;P2;SDS_P1;SDS_P2;PMS_P1;PMS_P2;Temp;Humidity;BMP_temperature;BMP_pressure;BME280_temperature;BME280_humidity;BME280_pressure;Samples;Min_cycle;Max_cycle;Signal;HPM_P1;HPM_P2
2021/10/04 00:02:58;;;;;;;18.50;13.38;;;;;;;8.88;74.30;100011.03;2154256;81;21059;-77
2021/10/04 00:06:00;;;;;;;18.48;14.63;;;;;;;8.80;74.83;100016.27;2147957;81;21018;-78
2021/10/04 00:09:01;;;;;;;15.18;12.82;;;;;;;8.73;75.13;100016.59;2150360;81;21006;-78
2021/10/04 00:12:03;;;;;;;16.62;12.23;;;;;;;8.71;75.53;100013.26;2147937;81;21069;-77
2021/10/04 00:15:13;;;;;;;15.30;11.35;;;;;;;8.69;74.72;100014.72;2152736;81;21598;-76
2021/10/04 00:18:15;;;;;;;18.20;13.18;;;;;;;8.66;74.44;100016.36;2152150;81;20999;-76
2021/10/04 00:21:17;;;;;;;18.15;13.65;;;;;;;8.67;74.97;100009.25;2148192;81;21454;-77
2021/10/04 00:24:18;;;;;;;18.27;14.70;;;;;;;8.61;75.21;100015.17;2147770;81;21057;-77
2021/10/04 00:27:20;;;;;;;19.23;13.43;;;;;;;8.56;75.63;100014.81;2154019;81;21025;-77
2021/10/04 00:30:24;;;;;;;18.95;15.00;;;;;;;8.52;76.00;100013.80;2155034;81;21577;-76
2021/10/04 00:33:25;;;;;;;22.42;15.30;;;;;;;8.50;76.17;100013.15;2150452;81;20974;-78
2021/10/04 00:36:27;;;;;;;21.75;15.13;;;;;;;8.55;76.51;100011.34;2153250;81;20958;-78
2021/10/04 00:39:30;;;;;;;22.30;13.88;;;;;;;8.55;76.52;100007.87;2148743;81;20979;-75
2021/10/04 00:42:32;;;;;;;17.00;13.70;;;;;;;8.48;76.42;100008.50;2150749;81;21000;-76
2021/10/04 00:45:34;;;;;;;21.12;15.32;;;;;;;8.50;76.53;100013.15;2154806;81;21078;-77
2021/10/04 00:48:35;;;;;;;24.40;15.05;;;;;;;8.47;76.88;100007.31;2151792;81;20987;-76
2021/10/04 00:51:37;;;;;;;20.70;14.38;;;;;;;8.44;77.01;100007.63;2155682;81;21082;-77
2021/10/04 00:54:39;;;;;;;19.45;14.87;;;;;;;8.39;77.38;100005.47;2152032;81;21028;-75
2021/10/04 00:57:41;;;;;;;20.72;15.65;;;;;;;8.33;77.37;100013.14;2146410;81;21536;-76
2021/10/04 01:00:43;;;;;;;21.70;16.40;;;;;;;8.35;77.81;100008.54;2146499;81;20963;-77
2021/10/04 01:03:45;;;;;;;23.25;15.55;;;;;;;8.40;78.05;100011.09;2152992;81;21430;-77
2021/10/04 01:06:47;;;;;;;21.37;17.77;;;;;;;8.41;78.15;100010.09;2143289;81;21687;-77
2021/10/04 01:09:48;;;;;;;21.17;15.53;;;;;;;8.46;78.42;100014.92;2147587;81;21012;-77
2021/10/04 01:12:51;;;;;;;24.55;16.10;;;;;;;8.48;78.37;100005.03;2125992;81;20998;-77
2021/10/04 01:15:53;;;;;;;19.52;15.03;;;;;;;8.49;78.65;100002.71;2141997;81;21048;-76
2021/10/04 01:18:55;;;;;;;20.57;15.23;;;;;;;8.48;78.43;100003.21;2139996;81;21649;-77
2021/10/04 01:21:56;;;;;;;24.77;14.93;;;;;;;8.49;78.58;100010.64;2150509;81;21017;-77
2021/10/04 01:24:58;;;;;;;20.08;14.03;;;;;;;8.47;77.89;100007.31;2149144;81;21383;-77
2021/10/04 01:28:00;;;;;;;19.00;13.40;;;;;;;8.35;77.76;100015.97;2141072;81;21321;-76
2021/10/04 01:31:02;;;;;;;56.35;29.57;;;;;;;8.35;78.05;100012.50;2145376;81;21057;-77
2021/10/04 01:34:06;;;;;;;26.87;16.35;;;;;;;8.34;78.30;100022.26;2145808;81;21667;-79
2021/10/04 01:37:08;;;;;;;20.02;13.75;;;;;;;8.30;78.00;100023.53;2150420;81;21029;-77
2021/10/04 01:40:11;;;;;;;21.20;12.90;;;;;;;8.27;77.48;100031.77;2147057;81;21025;-76
2021/10/04 01:43:14;;;;;;;19.85;12.23;;;;;;;8.23;77.39;100033.08;2146160;81;21499;-77
2021/10/04 01:46:16;;;;;;;15.28;11.22;;;;;;;8.24;77.30;100043.48;2147836;81;21028;-77
2021/10/04 01:49:17;;;;;;;19.05;13.30;;;;;;;8.21;76.98;100048.25;2140896;81;20969;-78
2021/10/04 01:52:19;;;;;;;19.52;13.75;;;;;;;8.11;77.05;100048.36;2149501;81;21110;-77
2021/10/04 01:55:21;;;;;;;21.12;14.35;;;;;;;8.05;77.58;100047.15;2150204;81;20993;-77
2021/10/04 01:58:23;;;;;;;19.32;14.05;;;;;;;8.02;77.52;100055.35;2145397;81;21017;-77
2021/10/04 02:01:25;;;;;;;17.52;13.98;;;;;;;7.95;77.72;100049.53;2144670;81;21004;-77
2021/10/04 02:04:26;;;;;;;20.65;16.00;;;;;;;7.94;77.50;100053.13;2146977;81;20966;-78
2021/10/04 02:07:28;;;;;;;19.27;13.25;;;;;;;7.91;77.71;100049.47;2144791;81;21029;-76
2021/10/04 02:10:35;;;;;;;17.02;13.15;;;;;;;7.83;77.50;100046.28;2144328;81;21469;-77
2021/10/04 02:13:37;;;;;;;16.15;12.85;;;;;;;7.80;77.46;100059.80;2147463;81;22144;-77
2021/10/04 02:16:38;;;;;;;15.90;12.75;;;;;;;7.77;77.31;100064.89;2151826;81;20979;-77
2021/10/04 02:19:40;;;;;;;18.48;13.85;;;;;;;7.76;77.61;100067.66;2150676;82;20998;-77
2021/10/04 02:22:41;;;;;;;19.73;14.30;;;;;;;7.71;77.34;100068.59;2147898;81;21087;-76
2021/10/04 02:25:49;;;;;;;17.02;12.95;;;;;;;7.62;77.68;100067.19;2152473;81;21480;-78
2021/10/04 02:28:50;;;;;;;18.00;14.35;;;;;;;7.55;77.71;100071.91;2149590;81;21547;-78
2021/10/04 02:31:52;;;;;;;20.80;15.63;;;;;;;7.55;78.17;100072.73;2144603;81;21032;-76
2021/10/04 02:34:53;;;;;;;19.87;14.40;;;;;;;7.52;77.88;100076.17;2153082;81;21560;-77
2021/10/04 02:37:56;;;;;;;18.65;12.75;;;;;;;7.51;77.98;100077.13;2146010;81;21459;-75
2021/10/04 02:40:57;;;;;;;21.97;14.78;;;;;;;7.46;77.82;100074.09;2149167;81;21030;-78
2021/10/04 02:43:58;;;;;;;18.20;12.73;;;;;;;7.44;77.68;100071.63;2151425;81;21057;-76
2021/10/04 02:47:00;;;;;;;18.90;11.15;;;;;;;7.41;77.35;100063.50;2146299;81;21054;-76
2021/10/04 02:50:04;;;;;;;20.20;13.72;;;;;;;7.41;77.19;100062.19;2148552;81;21024;-78
2021/10/04 02:53:05;;;;;;;19.42;14.63;;;;;;;7.39;77.33;100068.59;2148706;81;21049;-78
2021/10/04 02:56:07;;;;;;;16.75;11.28;;;;;;;7.37;77.39;100062.12;2147742;81;20990;-76
2021/10/04 02:59:11;;;;;;;16.57;12.98;;;;;;;7.37;77.26;100059.98;2145111;81;21735;-75
2021/10/04 03:02:12;;;;;;;16.57;11.28;;;;;;;7.36;77.49;100063.11;2152783;81;21080;-78
2021/10/04 03:05:13;;;;;;;14.70;10.55;;;;;;;7.35;77.04;100067.23;2152742;81;21018;-77
2021/10/04 03:08:15;;;;;;;15.13;12.15;;;;;;;7.33;77.06;100067.86;2126347;82;21008;-77
2021/10/04 03:11:16;;;;;;;23.05;13.18;;;;;;;7.30;77.24;100058.92;2149225;81;21017;-78
2021/10/04 03:14:18;;;;;;;15.30;12.15;;;;;;;7.29;77.58;100062.52;2152468;81;20978;-77
2021/10/04 03:17:19;;;;;;;17.92;13.32;;;;;;;7.26;77.08;100072.88;2142986;81;20957;-78
2021/10/04 03:20:21;;;;;;;16.50;12.43;;;;;;;7.22;77.21;100073.33;2145840;81;20996;-76
2021/10/04 03:23:22;;;;;;;16.67;12.43;;;;;;;7.24;77.49;100071.39;2148414;81;20964;-76
2021/10/04 03:26:24;;;;;;;21.05;15.13;;;;;;;7.20;77.26;100070.83;2146039;81;21101;-78
2021/10/04 03:29:25;;;;;;;20.80;14.13;;;;;;;7.10;77.53;100081.44;2150801;81;21020;-77
2021/10/04 03:32:27;;;;;;;18.85;12.05;;;;;;;7.05;77.76;100077.58;2151977;81;20990;-77
2021/10/04 03:35:28;;;;;;;17.42;13.13;;;;;;;7.04;77.42;100079.38;2150328;81;21026;-78
2021/10/04 03:38:30;;;;;;;19.37;13.65;;;;;;;7.05;77.73;100086.80;2143555;81;20967;-76
2021/10/04 03:41:32;;;;;;;21.95;12.55;;;;;;;7.04;77.59;100078.06;2147846;81;21048;-79
2021/10/04 03:44:34;;;;;;;16.15;11.90;;;;;;;7.02;77.21;100080.01;2147089;81;20961;-76
2021/10/04 03:47:36;;;;;;;16.30;13.20;;;;;;;6.99;77.09;100080.30;2158216;81;21041;-77
2021/10/04 03:50:37;;;;;;;18.57;13.00;;;;;;;6.98;77.27;100084.39;2150021;81;21612;-77
2021/10/04 03:53:39;;;;;;;18.07;12.85;;;;;;;6.95;77.43;100085.50;2151816;81;21052;-76
2021/10/04 03:56:40;;;;;;;16.32;10.30;;;;;;;6.90;77.39;100093.88;2148828;81;21004;-76
2021/10/04 03:59:42;;;;;;;18.27;12.25;;;;;;;6.88;77.36;100088.39;2154835;81;21585;-77
2021/10/04 04:02:44;;;;;;;17.15;12.40;;;;;;;6.83;77.22;100095.90;2150917;81;20961;-76
2021/10/04 04:05:45;;;;;;;17.67;12.50;;;;;;;6.84;77.32;100106.32;2156753;81;20967;-79
2021/10/04 04:08:47;;;;;;;24.82;11.53;;;;;;;6.86;77.21;100107.48;2153079;81;20968;-77
2021/10/04 04:11:48;;;;;;;18.57;12.37;;;;;;;6.82;77.03;100104.80;2152293;81;21097;-76
2021/10/04 04:14:50;;;;;;;18.65;12.50;;;;;;;6.80;77.03;100110.69;2157931;81;21061;-76
2021/10/04 04:17:52;;;;;;;17.57;11.83;;;;;;;6.78;76.96;100117.91;2154529;81;21535;-76
2021/10/04 04:20:53;;;;;;;19.82;13.72;;;;;;;6.72;76.84;100110.90;2156443;81;20993;-77
2021/10/04 04:23:55;;;;;;;19.25;13.80;;;;;;;6.72;76.92;100102.16;2150896;81;20973;-77
2021/10/04 04:26:56;;;;;;;24.32;13.13;;;;;;;6.74;77.43;100102.86;2155226;81;21034;-76
2021/10/04 04:30:00;;;;;;;20.97;13.00;;;;;;;6.77;77.61;100113.12;2155468;81;21038;-75
2021/10/04 04:33:01;;;;;;;16.20;12.15;;;;;;;6.78;77.24;100120.55;2152394;81;21071;-77
2021/10/04 04:36:03;;;;;;;17.37;11.63;;;;;;;6.77;77.11;100124.16;2156044;81;20995;-76
2021/10/04 04:39:04;;;;;;;22.25;13.00;;;;;;;6.78;77.02;100123.18;2156228;81;21044;-75
2021/10/04 04:42:07;;;;;;;18.65;12.75;;;;;;;6.76;77.04;100125.97;2152182;81;20973;-76
2021/10/04 04:45:11;;;;;;;16.97;12.00;;;;;;;6.74;76.96;100127.42;2148087;81;21054;-77
2021/10/04 04:48:12;;;;;;;17.62;11.78;;;;;;;6.74;77.01;100130.06;2158607;81;21671;-76
2021/10/04 04:51:14;;;;;;;14.53;11.85;;;;;;;6.73;77.00;100137.64;2151790;81;21027;-75
2021/10/04 04:54:15;;;;;;;19.45;13.43;;;;;;;6.73;76.84;100133.68;2153594;81;21024;-75
2021/10/04 04:57:16;;;;;;;19.82;12.40;;;;;;;6.69;77.11;100144.64;2154557;81;21022;-76
2021/10/04 05:00:18;;;;;;;21.93;13.13;;;;;;;6.67;76.93;100150.53;2152945;81;21056;-76
2021/10/04 05:03:20;;;;;;;19.07;13.05;;;;;;;6.67;77.05;100159.77;2150791;81;21010;-76
2021/10/04 05:06:22;;;;;;;21.07;14.25;;;;;;;6.65;77.02;100157.28;2150241;81;21058;-76
2021/10/04 05:09:23;;;;;;;19.45;13.80;;;;;;;6.63;77.44;100149.98;2148743;81;21037;-74
2021/10/04 05:12:25;;;;;;;26.17;15.72;;;;;;;6.65;77.50;100157.28;2156877;81;21050;-76
2021/10/04 05:15:27;;;;;;;21.25;12.65;;;;;;;6.66;77.61;100166.02;2152108;81;21031;-76
2021/10/04 05:18:29;;;;;;;15.90;11.50;;;;;;;6.70;77.56;100160.33;2144950;81;20998;-75
2021/10/04 05:21:30;;;;;;;19.73;12.55;;;;;;;6.87;77.61;100161.88;2151578;81;21033;-78
2021/10/04 05:24:32;;;;;;;14.80;10.32;;;;;;;7.12;77.68;100169.67;2150725;81;20999;-78
2021/10/04 05:27:34;;;;;;;26.90;13.68;;;;;;;7.42;77.58;100172.57;2153201;81;21058;-75
2021/10/04 05:30:35;;;;;;;14.65;11.00;;;;;;;7.71;77.40;100165.83;2152034;81;20974;-74
2021/10/04 05:33:37;;;;;;;20.02;13.50;;;;;;;7.96;76.97;100177.50;2152133;81;21040;-76
2021/10/04 05:36:38;;;;;;;18.57;12.60;;;;;;;8.24;76.96;100182.76;2155542;81;21069;-77
2021/10/04 05:39:40;;;;;;;21.48;12.33;;;;;;;8.56;76.83;100187.56;2150382;81;21457;-75
2021/10/04 05:42:42;;;;;;;19.00;12.50;;;;;;;8.92;76.66;100179.56;2151089;81;20974;-74
2021/10/04 05:45:43;;;;;;;15.23;11.43;;;;;;;9.30;76.34;100184.95;2156337;81;21024;-74
2021/10/04 05:48:45;;;;;;;21.15;13.35;;;;;;;9.70;76.21;100184.81;2150830;81;21018;-76
2021/10/04 05:51:46;;;;;;;18.57;14.33;;;;;;;10.09;75.87;100190.41;2155647;81;20935;-74
2021/10/04 05:54:48;;;;;;;26.15;16.97;;;;;;;10.42;75.60;100189.19;2158395;81;21542;-75
2021/10/04 05:57:49;;;;;;;28.95;16.25;;;;;;;10.63;75.23;100187.88;2152885;81;20991;-76
2021/10/04 06:00:51;;;;;;;25.48;15.78;;;;;;;10.80;74.64;100179.41;2149305;81;21486;-76
2021/10/04 06:03:53;;;;;;;25.37;16.48;;;;;;;10.86;74.42;100182.73;2152230;81;21475;-75
2021/10/04 06:06:54;;;;;;;22.52;15.50;;;;;;;11.00;74.66;100178.89;2148297;81;21018;-75
2021/10/04 06:09:56;;;;;;;24.95;15.72;;;;;;;11.23;74.29;100176.86;2150494;81;21703;-78
2021/10/04 06:12:57;;;;;;;25.08;16.73;;;;;;;11.39;74.10;100177.33;2152735;81;20995;-75
2021/10/04 06:15:59;;;;;;;19.70;15.35;;;;;;;11.84;73.98;100178.48;2152446;81;20997;-74
2021/10/04 06:19:00;;;;;;;18.95;13.25;;;;;;;11.84;73.98;100178.48;2156069;81;20987;-76
2021/10/04 06:22:02;;;;;;;19.85;13.75;;;;;;;11.98;73.51;100187.09;2154448;81;20987;-76
2021/10/04 06:25:07;;;;;;;18.52;13.75;;;;;;;12.17;73.69;100183.67;2150949;81;21004;-77
2021/10/04 06:28:09;;;;;;;21.27;13.75;;;;;;;12.38;73.49;100174.53;2148636;81;21023;-76
2021/10/04 06:31:10;;;;;;;22.58;13.78;;;;;;;12.63;73.26;100186.34;2154644;81;20994;-79
2021/10/04 06:34:12;;;;;;;19.35;14.53;;;;;;;12.84;72.80;100185.66;2144600;81;21603;-81
2021/10/04 06:37:14;;;;;;;22.95;14.23;;;;;;;13.00;72.49;100186.34;2154101;81;21056;-79
2021/10/04 06:40:17;;;;;;;20.68;15.28;;;;;;;13.24;72.44;100191.12;2156000;81;21002;-78
2021/10/04 06:43:20;;;;;;;22.70;15.28;;;;;;;13.53;72.10;100204.17;2148237;81;21505;-77
2021/10/04 06:46:21;;;;;;;28.38;17.12;;;;;;;13.83;71.98;100201.81;2153587;81;20979;-76
2021/10/04 06:49:23;;;;;;;21.60;15.98;;;;;;;14.16;71.72;100203.22;2157613;81;21073;-76
2021/10/04 06:52:24;;;;;;;20.52;15.32;;;;;;;14.55;71.76;100200.98;2158707;81;21030;-76
2021/10/04 06:55:26;;;;;;;24.75;15.25;;;;;;;14.85;71.19;100210.21;2150400;81;21039;-77
2021/10/04 06:58:27;;;;;;;23.35;15.80;;;;;;;15.16;70.56;100217.05;2150091;81;21028;-76
2021/10/04 07:01:29;;;;;;;24.00;16.57;;;;;;;15.50;70.43;100222.92;2152602;81;21019;-75
2021/10/04 07:04:30;;;;;;;32.67;18.20;;;;;;;15.86;70.28;100219.25;2153338;81;20989;-77
2021/10/04 07:07:32;;;;;;;27.62;19.05;;;;;;;16.14;69.92;100218.64;2152634;81;21020;-78
2021/10/04 07:10:33;;;;;;;22.98;17.15;;;;;;;16.44;69.57;100227.67;2148253;81;21011;-78
2021/10/04 07:13:35;;;;;;;21.50;16.50;;;;;;;16.75;69.31;100222.27;2155011;81;21026;-78
2021/10/04 07:16:37;;;;;;;20.45;13.32;;;;;;;17.13;68.89;100226.55;2151461;81;20979;-79
2021/10/04 07:19:38;;;;;;;17.00;13.10;;;;;;;17.41;68.19;100227.66;2153064;81;20999;-77
2021/10/04 07:22:40;;;;;;;14.18;11.97;;;;;;;17.76;67.78;100232.73;2154591;81;21291;-76
2021/10/04 07:25:42;;;;;;;18.02;12.45;;;;;;;18.12;67.73;100232.22;2156903;81;21673;-78
2021/10/04 07:28:44;;;;;;;15.85;11.45;;;;;;;18.44;67.11;100223.37;2153101;81;21084;-78
2021/10/04 07:31:46;;;;;;;13.32;11.18;;;;;;;18.73;66.72;100243.47;2147429;81;21048;-79
2021/10/04 07:34:47;;;;;;;15.63;11.85;;;;;;;19.16;66.44;100240.88;2148689;81;21097;-77
2021/10/04 07:37:49;;;;;;;15.00;11.38;;;;;;;19.52;65.64;100236.63;2154494;81;21007;-80
2021/10/04 07:40:51;;;;;;;13.30;11.60;;;;;;;19.81;65.23;100231.05;2149658;81;21430;-79
2021/10/04 07:43:52;;;;;;;17.45;11.97;;;;;;;19.99;64.58;100232.94;2152762;81;21575;-80
2021/10/04 07:46:57;;;;;;;13.88;10.30;;;;;;;20.28;64.63;100238.58;2155922;81;20942;-79
2021/10/04 07:49:59;;;;;;;16.07;11.10;;;;;;;20.66;64.06;100232.88;2150306;81;21020;-79
2021/10/04 07:53:00;;;;;;;17.32;10.88;;;;;;;20.96;62.91;100222.04;2154288;81;21062;-77
2021/10/04 07:56:02;;;;;;;13.18;10.78;;;;;;;21.10;62.90;100220.48;2154960;81;21019;-77
2021/10/04 07:59:03;;;;;;;17.52;11.00;;;;;;;21.46;62.51;100229.72;2151206;81;21057;-79
2021/10/04 08:02:05;;;;;;;15.00;10.80;;;;;;;21.78;61.56;100238.77;2136168;82;21065;-77
2021/10/04 08:05:07;;;;;;;14.47;10.60;;;;;;;21.88;60.64;100242.23;2132501;82;20985;-78
2021/10/04 08:08:09;;;;;;;14.00;9.83;;;;;;;21.96;60.43;100247.77;2133960;83;20981;-79
2021/10/04 08:11:10;;;;;;;14.70;9.63;;;;;;;21.91;59.95;100247.16;2135520;82;21020;-78
2021/10/04 08:14:12;;;;;;;15.30;10.32;;;;;;;21.95;59.51;100234.80;2131807;82;21084;-79
2021/10/04 08:17:14;;;;;;;12.88;10.25;;;;;;;21.87;58.89;100240.58;2132337;82;21830;-79
2021/10/04 08:20:16;;;;;;;13.40;10.40;;;;;;;21.74;58.97;100248.42;2127689;83;22368;-79
2021/10/04 08:23:17;;;;;;;12.90;10.03;;;;;;;21.77;57.51;100244.43;2132733;83;21470;-78
2021/10/04 08:26:19;;;;;;;13.75;9.78;;;;;;;21.56;58.59;100244.50;2131343;82;21074;-78
2021/10/04 08:29:20;;;;;;;12.70;10.23;;;;;;;21.75;58.61;100247.35;2130190;82;21442;-78
2021/10/04 08:32:22;;;;;;;14.68;10.72;;;;;;;21.81;58.16;100237.48;2131964;82;21432;-79
2021/10/04 08:35:24;;;;;;;14.58;10.43;;;;;;;21.81;56.84;100230.73;2131834;83;21059;-78
2021/10/04 08:38:27;;;;;;;16.57;10.93;;;;;;;21.72;57.43;100228.92;2133161;82;21605;-79
2021/10/04 08:41:29;;;;;;;14.15;11.10;;;;;;;21.60;56.92;100233.53;2130516;83;21094;-79
2021/10/04 08:44:31;;;;;;;13.78;10.85;;;;;;;21.66;57.79;100235.28;2131906;83;21095;-79
2021/10/04 08:47:41;;;;;;;19.73;12.07;;;;;;;21.78;57.12;100227.16;2133884;82;21017;-78
2021/10/04 08:50:40;;;;;;;16.23;11.35;;;;;;;21.75;57.22;100223.05;2127656;82;20985;-79
2021/10/04 08:53:42;;;;;;;21.25;11.25;;;;;;;21.94;56.80;100222.37;2133123;82;21010;-78
2021/10/04 08:56:43;;;;;;;16.20;10.90;;;;;;;22.03;56.86;100225.52;2129313;82;21492;-79
2021/10/04 08:59:46;;;;;;;15.65;12.00;;;;;;;22.15;56.71;100228.98;2108892;82;21711;-78
2021/10/04 09:02:49;;;;;;;17.15;11.93;;;;;;;22.28;56.47;100227.92;2158438;81;21065;-80
2021/10/04 09:05:58;;;;;;;18.05;12.10;;;;;;;22.48;56.54;100228.30;2152486;81;20983;-79
2021/10/04 09:09:09;;;;;;;22.05;12.25;;;;;;;22.59;55.89;100234.72;2149185;81;20978;-79
2021/10/04 09:12:13;;;;;;;17.65;11.20;;;;;;;22.77;55.82;100237.72;2152176;81;20951;-81
2021/10/04 09:15:29;;;;;;;16.27;12.15;;;;;;;22.89;55.53;100237.65;2150771;81;21014;-79
2021/10/04 09:18:31;;;;;;;18.07;11.35;;;;;;;22.91;55.24;100236.34;2154665;81;20999;-78
2021/10/04 09:21:32;;;;;;;14.10;11.08;;;;;;;22.85;55.12;100240.56;2150266;81;21653;-78
2021/10/04 09:24:36;;;;;;;15.78;11.63;;;;;;;22.79;55.00;100237.77;2149942;81;21073;-78
2021/10/04 09:27:45;;;;;;;15.10;11.20;;;;;;;22.94;54.90;100235.03;2154020;82;21022;-78
2021/10/04 09:30:46;;;;;;;14.40;11.08;;;;;;;23.00;54.62;100238.13;2151378;81;21596;-78
2021/10/04 09:34:17;;;;;;;15.32;12.00;;;;;;;23.02;54.75;100237.36;2152987;81;21115;-79
2021/10/04 09:37:26;;;;;;;13.05;10.63;;;;;;;23.21;54.48;100238.75;2150064;81;21037;-76
2021/10/04 09:40:38;;;;;;;14.18;11.20;;;;;;;23.46;54.07;100241.02;2153112;81;21042;-79
2021/10/04 09:43:40;;;;;;;18.65;11.35;;;;;;;23.76;53.88;100243.07;2155880;81;20972;-77
2021/10/04 09:46:41;;;;;;;11.83;10.53;;;;;;;23.88;53.70;100247.86;2151388;81;20994;-77
2021/10/04 09:49:53;;;;;;;16.57;10.80;;;;;;;23.87;52.89;100250.26;2152588;81;21088;-76
2021/10/04 09:52:59;;;;;;;15.98;10.80;;;;;;;23.76;53.09;100253.91;2152373;82;21050;-76
2021/10/04 09:56:00;;;;;;;11.43;10.25;;;;;;;23.87;53.08;100249.72;2149590;81;21046;-76
2021/10/04 09:59:03;;;;;;;20.40;11.03;;;;;;;24.04;52.38;100246.95;2153835;81;21095;-76
2021/10/04 10:02:07;;;;;;;12.98;11.40;;;;;;;24.12;52.43;100241.08;2157269;81;20995;-77
2021/10/04 10:05:08;;;;;;;18.17;11.43;;;;;;;24.14;52.17;100244.91;2153057;81;21591;-76
2021/10/04 10:08:11;;;;;;;12.30;10.88;;;;;;;24.09;51.21;100247.02;2130774;82;21003;-77
2021/10/04 10:11:18;;;;;;;15.53;10.32;;;;;;;24.07;52.10;100247.80;2158063;81;20974;-77
2021/10/04 10:14:20;;;;;;;16.90;11.70;;;;;;;24.16;51.79;100243.59;2155279;81;21376;-78
2021/10/04 10:17:27;;;;;;;13.15;10.88;;;;;;;24.20;51.92;100249.31;2152873;81;20992;-78
2021/10/04 10:20:30;;;;;;;15.38;11.55;;;;;;;24.28;51.63;100242.62;2155837;81;21130;-78
2021/10/04 10:23:48;;;;;;;13.05;11.08;;;;;;;24.34;51.36;100242.96;2152458;81;20987;-77
2021/10/04 10:26:59;;;;;;;16.27;10.72;;;;;;;24.29;51.43;100246.97;2153787;81;20961;-76
2021/10/04 10:30:17;;;;;;;14.38;10.98;;;;;;;24.28;51.25;100248.87;2155506;81;21057;-79
2021/10/04 10:33:49;;;;;;;15.48;10.65;;;;;;;24.37;51.19;100253.30;2152541;81;21010;-78
2021/10/04 10:37:22;;;;;;;15.68;11.22;;;;;;;24.40;51.10;100250.07;2156762;81;21440;-78
2021/10/04 10:40:24;;;;;;;14.30;10.98;;;;;;;24.38;51.03;100250.34;2153929;81;21079;-78
2021/10/04 10:43:25;;;;;;;15.40;11.65;;;;;;;24.36;50.67;100248.96;2156283;81;20991;-77
2021/10/04 10:46:51;;;;;;;15.75;10.53;;;;;;;24.43;50.79;100238.74;2151368;81;21098;-78
2021/10/04 10:50:11;;;;;;;20.52;10.40;;;;;;;24.51;50.92;100241.55;2156667;81;21104;-79
2021/10/04 10:53:26;;;;;;;13.35;10.63;;;;;;;24.48;50.57;100241.52;2156317;81;21026;-78
2021/10/04 10:56:33;;;;;;;15.30;10.93;;;;;;;24.47;50.53;100239.05;2152637;82;20979;-78
2021/10/04 10:59:35;;;;;;;12.00;9.35;;;;;;;24.56;50.64;100238.89;2147685;81;21320;-79
2021/10/04 11:02:56;;;;;;;12.20;10.13;;;;;;;24.67;50.65;100243.87;2131858;82;20995;-78
2021/10/04 11:06:07;;;;;;;13.00;10.23;;;;;;;24.71;50.54;100239.02;2133057;82;21774;-79
2021/10/04 11:09:09;;;;;;;13.60;10.03;;;;;;;24.74;49.93;100245.28;2130870;83;20993;-78
2021/10/04 11:12:10;;;;;;;14.50;9.33;;;;;;;24.45;50.22;100246.09;2137111;83;21496;-78
2021/10/04 11:15:17;;;;;;;12.20;8.83;;;;;;;24.48;49.74;100248.84;2133526;83;21517;-78
2021/10/04 11:18:19;;;;;;;10.93;8.93;;;;;;;24.31;50.30;100254.32;2131127;82;20985;-78
2021/10/04 11:21:28;;;;;;;12.78;8.83;;;;;;;24.22;50.35;100262.62;2133129;83;21109;-78
2021/10/04 11:24:30;;;;;;;11.68;8.98;;;;;;;24.23;50.39;100265.61;2136345;82;21033;-78
2021/10/04 11:27:32;;;;;;;12.03;8.65;;;;;;;24.35;50.05;100263.57;2134806;82;20994;-79
2021/10/04 11:30:59;;;;;;;13.88;9.75;;;;;;;24.30;50.18;100265.70;2132179;83;20986;-78
2021/10/04 11:34:05;;;;;;;11.08;9.33;;;;;;;24.19;50.26;100257.69;2135818;82;21034;-78
2021/10/04 11:37:07;;;;;;;13.08;8.90;;;;;;;24.24;49.85;100263.17;2132691;83;21061;-78
2021/10/04 11:40:10;;;;;;;13.55;8.98;;;;;;;24.14;49.76;100258.46;2133362;82;21572;-78
2021/10/04 11:43:11;;;;;;;12.47;8.08;;;;;;;24.04;50.34;100257.79;2131915;82;21052;-79
2021/10/04 11:46:23;;;;;;;15.15;8.65;;;;;;;23.96;50.08;100260.94;2132938;83;21123;-78
2021/10/04 11:49:29;;;;;;;17.20;9.83;;;;;;;23.91;50.36;100262.25;2133248;82;21029;-78
2021/10/04 11:52:32;;;;;;;14.43;8.48;;;;;;;23.94;50.34;100257.68;2133387;82;21052;-78
2021/10/04 11:55:34;;;;;;;12.55;9.30;;;;;;;23.96;50.42;100254.16;2132359;83;20985;-77
2021/10/04 11:58:38;;;;;;;9.95;8.93;;;;;;;23.89;50.55;100254.36;2135347;82;21545;-79
2021/10/04 12:01:41;;;;;;;12.23;9.20;;;;;;;23.79;50.55;100252.05;2122878;82;21068;-78
2021/10/04 12:04:42;;;;;;;15.58;9.38;;;;;;;23.70;50.70;100251.63;2121124;82;21030;-78
2021/10/04 12:08:10;;;;;;;11.95;9.83;;;;;;;23.71;51.07;100256.84;2120264;82;21034;-78
2021/10/04 12:11:14;;;;;;;13.00;9.13;;;;;;;23.79;51.00;100261.53;2125002;82;21880;-78
2021/10/04 12:14:17;;;;;;;10.78;8.58;;;;;;;23.77;50.94;100261.80;2120029;82;20993;-76
2021/10/04 12:17:19;;;;;;;11.40;8.18;;;;;;;23.82;51.11;100266.45;2123589;82;20998;-78
2021/10/04 12:20:22;;;;;;;14.75;8.23;;;;;;;23.77;50.89;100269.92;2097277;84;21042;-79
2021/10/04 12:23:25;;;;;;;9.50;8.40;;;;;;;23.67;51.12;100261.61;2125707;82;21456;-77
2021/10/04 12:26:26;;;;;;;13.00;8.50;;;;;;;23.56;51.07;100263.89;2119663;82;21673;-77
2021/10/04 12:29:42;;;;;;;10.90;8.55;;;;;;;23.42;50.86;100247.17;2120979;82;21046;-77
2021/10/04 12:32:49;;;;;;;13.08;8.70;;;;;;;23.43;51.15;100248.30;2124726;82;21064;-77
2021/10/04 12:35:51;;;;;;;8.58;7.78;;;;;;;23.33;51.29;100240.55;2117977;83;21013;-78
2021/10/04 12:38:58;;;;;;;15.38;9.28;;;;;;;23.38;51.70;100242.80;2123246;82;20999;-77
2021/10/04 12:42:02;;;;;;;10.13;7.97;;;;;;;23.42;51.54;100241.76;2112567;82;21063;-78
2021/10/04 12:45:10;;;;;;;11.25;7.78;;;;;;;23.39;51.66;100239.55;2120956;82;20989;-76
2021/10/04 12:48:16;;;;;;;12.30;8.50;;;;;;;23.38;51.73;100240.63;2120364;82;20980;-78
2021/10/04 12:51:21;;;;;;;10.65;8.10;;;;;;;23.32;51.58;100243.80;2102668;82;21005;-77
2021/10/04 12:54:30;;;;;;;11.28;8.10;;;;;;;23.37;51.89;100243.03;2117105;82;21014;-78
2021/10/04 12:57:34;;;;;;;12.43;8.48;;;;;;;23.40;51.55;100246.09;2119731;83;20997;-79
2021/10/04 13:00:36;;;;;;;14.30;8.93;;;;;;;23.37;51.92;100245.23;2125950;82;21047;-79
2021/10/04 13:03:59;;;;;;;11.12;8.43;;;;;;;23.25;51.97;100245.30;2152934;81;21010;-79
2021/10/04 13:07:07;;;;;;;16.05;9.08;;;;;;;23.21;51.90;100247.41;2156480;81;20991;-77
2021/10/04 13:10:06;;;;;;;12.90;8.50;;;;;;;23.19;51.88;100250.35;2152752;81;21029;-78
2021/10/04 13:13:07;;;;;;;13.05;8.20;;;;;;;23.08;51.84;100251.26;2156793;81;21037;-77
2021/10/04 13:16:10;;;;;;;10.78;7.65;;;;;;;23.01;52.17;100246.55;2150622;81;21555;-77
2021/10/04 13:19:12;;;;;;;11.68;9.03;;;;;;;22.94;52.06;100250.73;2160220;82;21465;-78
2021/10/04 13:22:18;;;;;;;11.28;9.33;;;;;;;22.94;52.10;100253.97;2148726;82;21455;-78
2021/10/04 13:25:18;;;;;;;9.65;8.13;;;;;;;22.97;52.18;100252.16;2155773;81;21085;-77
2021/10/04 13:28:19;;;;;;;23.45;16.32;;;;;;;22.97;52.11;100248.09;2152794;81;21019;-77
2021/10/04 13:31:24;;;;;;;16.27;9.70;;;;;;;22.90;52.03;100247.42;2158734;81;21423;-75
2021/10/04 13:34:26;;;;;;;14.25;9.00;;;;;;;22.76;52.29;100243.67;2156021;82;21097;-77
2021/10/04 13:37:29;;;;;;;10.63;9.00;;;;;;;22.74;52.56;100259.31;2148390;82;21113;-78
2021/10/04 13:40:33;;;;;;;11.73;8.20;;;;;;;22.73;52.44;100260.39;2156487;81;21009;-76
2021/10/04 13:43:35;;;;;;;12.10;8.70;;;;;;;22.62;52.41;100251.80;2151856;81;21050;-78
2021/10/04 13:46:36;;;;;;;9.30;7.08;;;;;;;22.60;52.51;100260.69;2155817;81;21045;-77
2021/10/04 13:49:38;;;;;;;19.35;8.15;;;;;;;22.56;52.50;100268.47;2149380;81;21336;-77
2021/10/04 13:52:39;;;;;;;12.88;7.92;;;;;;;22.42;53.05;100259.55;2155117;82;21667;-77
2021/10/04 13:55:41;;;;;;;15.65;7.95;;;;;;;22.37;53.14;100262.42;2156573;81;21437;-78
2021/10/04 13:58:42;;;;;;;11.97;7.78;;;;;;;22.34;53.10;100267.50;2150558;81;21552;-77
2021/10/04 14:01:45;;;;;;;28.95;11.38;;;;;;;22.24;53.46;100270.80;2155276;81;20991;-79